Test XHTML 1.0 Strict Page for WU-History Testing
Histѓrico de la Estaciѓn METEOCORUбA
 
Diario Datos del Mayo 27, 2018 Unidades:  Metrico    Inglщs   Ambos
« Prev Dia
Sig Dia »
Diario Semanal Mensual Anual Rango
  Actual: Max: Min: Media:
Temp: -9.7 °C -17.8 °C -10.6 °C -10.2 °C
Rocэo: -10.5 °C -17.8 °C -10.9 °C -10.7 °C
Humedad: 91 % Humidity % 88 % 94 %
Vel. viento: 5.1 km/h 0 km/h 2.6 km/h 13.5 km/h
Racha: 15.6 km/h 0 km/h - -
Viento:West - - WSW
Presiѓn: 34418.7 hPa 0 hPa 34327.3 hPa -
Lluvia: 0 mm      
Historical Graphs
 
 
Busqueda de Mayo 27, 2018
Hora Temp Rocэo Presiѓn Viento Vel. viento Racha Humedad Ratio lluvia (/hora) Radiaciѓn
-17.8 °C -17.8 °C 0 hPa Calm     Humidity % 0 mm SolarRadiationWatts/m^2 W/m2
00:02 -10.2 °C -10.5 °C 34371.3 hPa West 12.9 km/h 12.9 km/h 96 % 0 mm 0.0 W/m2
00:07 -10.2 °C -10.5 °C 34371.3 hPa West 11.9 km/h 11.9 km/h 96 % 0 mm 0.0 W/m2
00:12 -10.1 °C -10.4 °C 34371.3 hPa West 12.9 km/h 12.9 km/h 96 % 0 mm 0.0 W/m2
00:17 -10.2 °C -10.6 °C 34371.3 hPa West 12.9 km/h 12.9 km/h 96 % 0 mm 0.0 W/m2
00:22 -10.2 °C -10.5 °C 34371.3 hPa West 15.6 km/h 15.6 km/h 96 % 0 mm 0.0 W/m2
00:27 -10.1 °C -10.4 °C 34371.3 hPa West 12.9 km/h 12.9 km/h 96 % 0 mm 0.0 W/m2
00:32 -10.1 °C -10.4 °C 34371.3 hPa West 12.9 km/h 12.9 km/h 96 % 0 mm 0.0 W/m2
00:37 -10.1 °C -10.4 °C 34371.3 hPa West 15 km/h 15 km/h 96 % 0 mm 0.0 W/m2
00:42 -10.1 °C -10.4 °C 34371.3 hPa West 11.9 km/h 11.9 km/h 96 % 0 mm 0.0 W/m2
00:47 -10.1 °C -10.4 °C 34371.3 hPa West 11.9 km/h 11.9 km/h 96 % 0 mm 0.0 W/m2
00:52 -10.1 °C -10.4 °C 34371.3 hPa West 6 km/h 6 km/h 96 % 0 mm 0.0 W/m2
00:57 -10.1 °C -10.4 °C 34371.3 hPa West 9 km/h 9 km/h 96 % 0 mm 0.0 W/m2
01:00 -10.2 °C -10.5 °C 34384.8 hPa NW 7.7 km/h 15.6 km/h 96 % 0 mm 0 W/m2
01:02 -10.1 °C -10.4 °C 34371.3 hPa West 10.3 km/h 10.3 km/h 96 % 0 mm 0.0 W/m2
01:07 -10.1 °C -10.4 °C 34361.1 hPa West 10.3 km/h 10.3 km/h 96 % 0 mm 0.0 W/m2
01:12 -10.1 °C -10.4 °C 34361.1 hPa West 9 km/h 9 km/h 96 % 0 mm 0.0 W/m2
01:17 -10.1 °C -10.4 °C 34361.1 hPa West 10.3 km/h 10.3 km/h 96 % 0 mm 0.0 W/m2
01:22 -10.1 °C -10.4 °C 34361.1 hPa WNW 12.9 km/h 12.9 km/h 96 % 0 mm 0.0 W/m2
01:27 -10.2 °C -10.5 °C 34361.1 hPa NW 9 km/h 9 km/h 96 % 0 mm 0.0 W/m2
01:30 -10.2 °C -10.5 °C 34371.3 hPa WNW 7.7 km/h 15.6 km/h 96 % 0 mm 0 W/m2
01:32 -10.2 °C -10.5 °C 34371.3 hPa NW 10.3 km/h 10.3 km/h 96 % 0 mm 0.0 W/m2
01:37 -10.2 °C -10.5 °C 34371.3 hPa NW 10.3 km/h 10.3 km/h 96 % 0 mm 0.0 W/m2
01:42 -10.2 °C -10.5 °C 34361.1 hPa WNW 9 km/h 9 km/h 96 % 0 mm 0.0 W/m2
01:47 -10.2 °C -10.5 °C 34361.1 hPa WNW 9 km/h 9 km/h 96 % 0 mm 0.0 W/m2
01:52 -10.2 °C -10.5 °C 34361.1 hPa WNW 11.9 km/h 11.9 km/h 96 % 0 mm 0.0 W/m2
01:57 -10.2 °C -10.5 °C 34361.1 hPa WNW 12.9 km/h 12.9 km/h 96 % 0 mm 0.0 W/m2
02:00 -10.2 °C -10.6 °C 34371.3 hPa West 7.7 km/h 12.9 km/h 96 % 0 mm 0 W/m2
02:02 -10.2 °C -10.5 °C 34371.3 hPa WNW 15.6 km/h 15.6 km/h 96 % 0 mm 0.0 W/m2
02:07 -10.2 °C -10.6 °C 34361.1 hPa West 15.6 km/h 15.6 km/h 96 % 0 mm 0.0 W/m2
02:12 -10.2 °C -10.5 °C 34361.1 hPa WNW 12.9 km/h 12.9 km/h 96 % 0 mm 0.0 W/m2
02:17 -10.2 °C -10.5 °C 34361.1 hPa WNW 10.3 km/h 10.3 km/h 96 % 0 mm 0.0 W/m2
02:22 -10.2 °C -10.5 °C 34361.1 hPa WNW 10.3 km/h 10.3 km/h 96 % 0 mm 0.0 W/m2
02:27 -10.2 °C -10.5 °C 34361.1 hPa WNW 9 km/h 9 km/h 96 % 0 mm 0.0 W/m2
02:30 -10.3 °C -10.6 °C 34371.3 hPa West 2.6 km/h 10.3 km/h 96 % 0 mm 0 W/m2
02:32 -10.2 °C -10.5 °C 34361.1 hPa West 11.9 km/h 11.9 km/h 96 % 0 mm 0.0 W/m2
02:37 -10.2 °C -10.6 °C 34361.1 hPa West 9 km/h 9 km/h 96 % 0 mm 0.0 W/m2
02:42 -10.2 °C -10.6 °C 34361.1 hPa West 11.9 km/h 11.9 km/h 96 % 0 mm 0.0 W/m2
02:47 -10.2 °C -10.6 °C 34361.1 hPa West 10.3 km/h 10.3 km/h 96 % 0 mm 0.0 W/m2
02:52 -10.3 °C -10.6 °C 34361.1 hPa West 12.9 km/h 12.9 km/h 96 % 0 mm 0.0 W/m2
02:57 -10.3 °C -10.6 °C 34361.1 hPa West 9 km/h 9 km/h 96 % 0 mm 0.0 W/m2
03:00 -10.3 °C -10.7 °C 34361.1 hPa West 5.1 km/h 12.9 km/h 96 % 0 mm 0 W/m2
03:02 -10.3 °C -10.6 °C 34361.1 hPa West 9 km/h 9 km/h 96 % 0 mm 0.0 W/m2
03:07 -10.3 °C -10.6 °C 34361.1 hPa West 9 km/h 9 km/h 96 % 0 mm 0.0 W/m2
03:12 -10.3 °C -10.6 °C 34347.6 hPa West 6 km/h 6 km/h 96 % 0 mm 0.0 W/m2
03:17 -10.3 °C -10.6 °C 34347.6 hPa West 6 km/h 6 km/h 96 % 0 mm 0.0 W/m2
03:22 -10.3 °C -10.6 °C 34347.6 hPa West 10.3 km/h 10.3 km/h 96 % 0 mm 0.0 W/m2
03:27 -10.3 °C -10.6 °C 34347.6 hPa West 9 km/h 9 km/h 96 % 0 mm 0.0 W/m2
03:30 -10.3 °C -10.7 °C 34361.1 hPa West 2.6 km/h 10.3 km/h 96 % 0 mm 0 W/m2
03:32 -10.3 °C -10.7 °C 34347.6 hPa West 9 km/h 9 km/h 96 % 0 mm 0.0 W/m2
03:37 -10.3 °C -10.7 °C 34347.6 hPa West 9 km/h 9 km/h 96 % 0 mm 0.0 W/m2
03:42 -10.3 °C -10.7 °C 34347.6 hPa West 9 km/h 9 km/h 96 % 0 mm 0.0 W/m2
03:47 -10.3 °C -10.7 °C 34347.6 hPa West 9 km/h 9 km/h 96 % 0 mm 0.0 W/m2
03:52 -10.3 °C -10.7 °C 34347.6 hPa West 9 km/h 9 km/h 96 % 0 mm 0.0 W/m2
03:57 -10.3 °C -10.7 °C 34347.6 hPa West 6 km/h 6 km/h 96 % 0 mm 0.0 W/m2
04:00 -10.3 °C -10.7 °C 34361.1 hPa West 5.1 km/h 10.3 km/h 96 % 0 mm 0 W/m2
04:02 -10.3 °C -10.7 °C 34347.6 hPa West 9 km/h 9 km/h 96 % 0 mm 0.0 W/m2
04:07 -10.3 °C -10.7 °C 34347.6 hPa West 6 km/h 6 km/h 96 % 0 mm 0.0 W/m2
04:12 -10.3 °C -10.7 °C 34347.6 hPa West 9 km/h 9 km/h 96 % 0 mm 0.0 W/m2
04:17 -10.3 °C -10.7 °C 34347.6 hPa West 9 km/h 9 km/h 96 % 0 mm 0.0 W/m2
04:22 -10.3 °C -10.7 °C 34337.4 hPa West 9 km/h 9 km/h 96 % 0 mm 0.0 W/m2
04:27 -10.3 °C -10.7 °C 34347.6 hPa West 9 km/h 9 km/h 96 % 0 mm 0.0 W/m2
04:30 -10.4 °C -10.7 °C 34347.6 hPa West 2.6 km/h 10.3 km/h 96 % 0 mm 0 W/m2
04:32 -10.3 °C -10.7 °C 34347.6 hPa West 9 km/h 9 km/h 96 % 0 mm 0.0 W/m2
04:37 -10.3 °C -10.7 °C 34347.6 hPa West 10.3 km/h 10.3 km/h 96 % 0 mm 0.0 W/m2
04:42 -10.3 °C -10.7 °C 34337.4 hPa West 9 km/h 9 km/h 96 % 0 mm 0.0 W/m2
04:47 -10.3 °C -10.7 °C 34337.4 hPa West 9 km/h 9 km/h 96 % 0 mm 0.0 W/m2
04:52 -10.3 °C -10.7 °C 34337.4 hPa West 6 km/h 6 km/h 96 % 0 mm 0.0 W/m2
04:57 -10.3 °C -10.7 °C 34337.4 hPa West 6 km/h 6 km/h 96 % 0 mm 0.0 W/m2
05:00 -10.4 °C -10.8 °C 34337.4 hPa SSW 10.3 km/h 18.2 km/h 96 % 0 mm 0 W/m2
05:02 -10.3 °C -10.7 °C 34337.4 hPa West 6 km/h 6 km/h 96 % 0 mm 0.0 W/m2
05:07 -10.4 °C -10.7 °C 34337.4 hPa West 10.3 km/h 10.3 km/h 96 % 0 mm 0.0 W/m2
05:12 -10.4 °C -10.8 °C 34337.4 hPa West 9 km/h 9 km/h 96 % 0 mm 0.0 W/m2
05:17 -10.4 °C -10.7 °C 34337.4 hPa West 9 km/h 9 km/h 96 % 0 mm 0.0 W/m2
05:22 -10.4 °C -10.7 °C 34337.4 hPa West 9 km/h 9 km/h 96 % 0 mm 0.0 W/m2
05:27 -10.4 °C -10.7 °C 34337.4 hPa West 9 km/h 9 km/h 96 % 0 mm 0.0 W/m2
05:30 -10.6 °C -10.9 °C 34347.6 hPa WSW 5.1 km/h 15.6 km/h 96 % 0 mm 0 W/m2
05:32 -10.4 °C -10.7 °C 34337.4 hPa West 10.3 km/h 10.3 km/h 96 % 0 mm 0.0 W/m2
05:37 -10.4 °C -10.8 °C 34337.4 hPa SW 18.2 km/h 18.2 km/h 96 % 0 mm 0.0 W/m2
05:42 -10.5 °C -10.8 °C 34337.4 hPa SSW 18.2 km/h 18.2 km/h 96 % 0 mm 0.0 W/m2
05:47 -10.5 °C -10.9 °C 34327.3 hPa SSW 18.2 km/h 18.2 km/h 96 % 0 mm 0.0 W/m2
05:52 -10.6 °C -10.9 °C 34327.3 hPa SSW 11.9 km/h 11.9 km/h 96 % 0 mm 0.0 W/m2
05:57 -10.6 °C -10.9 °C 34327.3 hPa SSW 10.3 km/h 10.3 km/h 96 % 0 mm 0.0 W/m2
06:00 -10.6 °C -10.9 °C 34361.1 hPa SSW 10.3 km/h 20.8 km/h 96 % 0 mm 0 W/m2
06:02 -10.6 °C -10.9 °C 34327.3 hPa SSW 7.7 km/h 7.7 km/h 96 % 0 mm 0.0 W/m2
06:07 -10.6 °C -10.9 °C 34337.4 hPa SSW 10.3 km/h 10.3 km/h 96 % 0 mm 0.0 W/m2
06:12 -10.6 °C -10.9 °C 34337.4 hPa WSW 15.6 km/h 15.6 km/h 96 % 0 mm 0.0 W/m2
06:17 -10.5 °C -10.9 °C 34337.4 hPa West 15 km/h 15 km/h 96 % 0 mm 0.0 W/m2
06:22 -10.5 °C -10.8 °C 34337.4 hPa WSW 10.3 km/h 10.3 km/h 96 % 0 mm 0.0 W/m2
06:27 -10.5 °C -10.9 °C 34337.4 hPa SW 12.9 km/h 12.9 km/h 96 % 0 mm 0.0 W/m2
06:30 -10.6 °C -10.9 °C 34361.1 hPa SW 7.7 km/h 23.3 km/h 96 % 0 mm 3 W/m2
06:32 -10.6 °C -10.9 °C 34337.4 hPa SW 18.2 km/h 18.2 km/h 96 % 0 mm 0.0 W/m2
06:37 -10.6 °C -10.9 °C 34337.4 hPa SSW 15.6 km/h 15.6 km/h 96 % 0 mm 0.0 W/m2
06:42 -10.6 °C -10.9 °C 34337.4 hPa SSW 15.6 km/h 15.6 km/h 96 % 0 mm 0.0 W/m2
06:47 -10.6 °C -10.9 °C 34337.4 hPa SW 17.9 km/h 17.9 km/h 96 % 0 mm 0.0 W/m2
06:52 -10.6 °C -10.9 °C 34337.4 hPa SSW 17.9 km/h 17.9 km/h 96 % 0 mm 0.0 W/m2
06:57 -10.6 °C -10.9 °C 34337.4 hPa SW 9 km/h 9 km/h 96 % 0 mm 0.0 W/m2
07:00 -10.5 °C -10.9 °C 34371.3 hPa SSW 10.3 km/h 23.3 km/h 95 % 0 mm 18 W/m2
07:02 -10.6 °C -10.9 °C 34337.4 hPa SW 11.9 km/h 11.9 km/h 96 % 0 mm 0.0 W/m2
07:07 -10.6 °C -10.9 °C 34337.4 hPa SW 12.9 km/h 12.9 km/h 96 % 0 mm 0.0 W/m2
07:12 -10.6 °C -10.9 °C 34337.4 hPa SW 23.8 km/h 23.8 km/h 96 % 0 mm 0.0 W/m2
07:17 -10.6 °C -10.9 °C 34347.6 hPa SW 15 km/h 15 km/h 96 % 0 mm 7.0 W/m2
07:22 -10.6 °C -10.9 °C 34347.6 hPa SW 17.9 km/h 17.9 km/h 96 % 0 mm 7.0 W/m2
07:27 -10.5 °C -10.9 °C 34347.6 hPa SSW 15.6 km/h 15.6 km/h 96 % 0 mm 11.0 W/m2
07:30 -10.4 °C -10.9 °C 34371.3 hPa SSW 12.9 km/h 23.3 km/h 95 % 0 mm 43 W/m2
07:32 -10.5 °C -10.9 °C 34347.6 hPa SSW 18.2 km/h 18.2 km/h 95 % 0 mm 12.0 W/m2
07:37 -10.5 °C -10.9 °C 34347.6 hPa SSW 18.2 km/h 18.2 km/h 95 % 0 mm 12.0 W/m2
07:42 -10.5 °C -10.9 °C 34347.6 hPa South 18.2 km/h 18.2 km/h 95 % 0 mm 16.0 W/m2
07:47 -10.5 °C -10.9 °C 34347.6 hPa SSW 18.2 km/h 18.2 km/h 95 % 0 mm 21.0 W/m2
07:52 -10.5 °C -10.9 °C 34347.6 hPa SSW 17.9 km/h 17.9 km/h 95 % 0 mm 32.0 W/m2
07:57 -10.5 °C -10.9 °C 34361.1 hPa SSW 23.8 km/h 23.8 km/h 95 % 0 mm 32.0 W/m2
08:00 -10.3 °C -10.7 °C 34384.8 hPa SSW 10.3 km/h 20.8 km/h 95 % 0 mm 79 W/m2
08:02 -10.4 °C -10.9 °C 34361.1 hPa SSW 18.2 km/h 18.2 km/h 95 % 0 mm 25.0 W/m2
08:07 -10.4 °C -10.9 °C 34361.1 hPa SSW 18.2 km/h 18.2 km/h 95 % 0 mm 32.0 W/m2
08:12 -10.4 °C -10.9 °C 34361.1 hPa SSW 18.2 km/h 18.2 km/h 95 % 0 mm 46.0 W/m2
08:17 -10.4 °C -10.9 °C 34361.1 hPa SSW 20.9 km/h 20.9 km/h 95 % 0 mm 54.0 W/m2
08:22 -10.4 °C -10.8 °C 34361.1 hPa SSW 17.9 km/h 17.9 km/h 95 % 0 mm 62.0 W/m2
08:27 -10.4 °C -10.8 °C 34361.1 hPa SSW 20.9 km/h 20.9 km/h 95 % 0 mm 70.0 W/m2
08:30 -10.2 °C -10.7 °C 34395 hPa SSW 7.7 km/h 20.8 km/h 94 % 0 mm 88 W/m2
08:32 -10.3 °C -10.8 °C 34361.1 hPa SSW 17.9 km/h 17.9 km/h 95 % 0 mm 72.0 W/m2
08:37 -10.3 °C -10.7 °C 34361.1 hPa SSW 17.9 km/h 17.9 km/h 95 % 0 mm 76.0 W/m2
08:42 -10.3 °C -10.8 °C 34371.3 hPa SSW 15 km/h 15 km/h 94 % 0 mm 74.0 W/m2
08:47 -10.3 °C -10.7 °C 34371.3 hPa SSW 15.6 km/h 15.6 km/h 95 % 0 mm 84.0 W/m2
08:52 -10.2 °C -10.7 °C 34371.3 hPa SSW 15 km/h 15 km/h 95 % 0 mm 95.0 W/m2
08:57 -10.2 °C -10.7 °C 34371.3 hPa SSW 18.2 km/h 18.2 km/h 95 % 0 mm 86.0 W/m2
09:00 -10.1 °C -10.8 °C 34395 hPa SSW 10.3 km/h 25.9 km/h 92 % 0 mm 120 W/m2
09:02 -10.2 °C -10.7 °C 34371.3 hPa SSW 9 km/h 9 km/h 94 % 0 mm 84.0 W/m2
09:07 -10.2 °C -10.7 °C 34371.3 hPa SSW 9 km/h 9 km/h 94 % 0 mm 95.0 W/m2
09:12 -10.2 °C -10.7 °C 34371.3 hPa SSW 18.2 km/h 18.2 km/h 94 % 0 mm 90.0 W/m2
09:17 -10.2 °C -10.7 °C 34384.8 hPa SW 9 km/h 9 km/h 94 % 0 mm 81.0 W/m2
09:22 -10.2 °C -10.7 °C 34384.8 hPa SW 12.9 km/h 12.9 km/h 94 % 0 mm 86.0 W/m2
09:27 -10.2 °C -10.7 °C 34384.8 hPa SW 15.6 km/h 15.6 km/h 94 % 0 mm 98.0 W/m2
09:30 -9.9 °C -10.7 °C 34405.1 hPa SSW 10.3 km/h 23.3 km/h 92 % 0 mm 183 W/m2
09:32 -10.2 °C -10.7 °C 34384.8 hPa SSW 20.9 km/h 20.9 km/h 94 % 0 mm 113.0 W/m2
09:37 -10.2 °C -10.8 °C 34384.8 hPa SSW 18.2 km/h 18.2 km/h 93 % 0 mm 116.0 W/m2
09:42 -10.1 °C -10.7 °C 34384.8 hPa SSW 18.2 km/h 18.2 km/h 93 % 0 mm 88.0 W/m2
09:47 -10.1 °C -10.7 °C 34384.8 hPa South 17.9 km/h 17.9 km/h 93 % 0 mm 130.0 W/m2
09:52 -10.1 °C -10.8 °C 34384.8 hPa SSW 26.9 km/h 26.9 km/h 92 % 0 mm 155.0 W/m2
09:57 -10.1 °C -10.8 °C 34384.8 hPa SSW 20.9 km/h 20.9 km/h 92 % 0 mm 163.0 W/m2
10:02 -10.1 °C -10.7 °C 34384.8 hPa West 15 km/h 15 km/h 92 % 0 mm 188.0 W/m2
10:07 -9.9 °C -10.7 °C 34395 hPa WSW 15.6 km/h 15.6 km/h 92 % 0 mm 172.0 W/m2
10:12 -9.9 °C -10.7 °C 34395 hPa SW 17.9 km/h 17.9 km/h 92 % 0 mm 132.0 W/m2
10:17 -9.9 °C -10.7 °C 34395 hPa West 17.9 km/h 17.9 km/h 92 % 0 mm 171.0 W/m2
10:22 -9.9 °C -10.7 °C 34395 hPa SSW 23.8 km/h 23.8 km/h 92 % 0 mm 223.0 W/m2
10:27 -9.9 °C -10.6 °C 34395 hPa SW 17.9 km/h 17.9 km/h 92 % 0 mm 237.0 W/m2
10:32 -9.9 °C -10.6 °C 34395 hPa SW 25.9 km/h 25.9 km/h 92 % 0 mm 257.0 W/m2
10:37 -9.8 °C -10.6 °C 34395 hPa SW 20.9 km/h 20.9 km/h 92 % 0 mm 338.0 W/m2
10:42 -9.8 °C -10.5 °C 34395 hPa SSW 20.9 km/h 20.9 km/h 92 % 0 mm 338.0 W/m2
10:47 -9.8 °C -10.4 °C 34395 hPa South 23.3 km/h 23.3 km/h 92 % 0 mm 323.0 W/m2
10:52 -9.8 °C -10.6 °C 34395 hPa WSW 29.8 km/h 29.8 km/h 91 % 0 mm 366.0 W/m2
10:57 -9.7 °C -10.4 °C 34395 hPa SSW 26.9 km/h 26.9 km/h 92 % 0 mm 360.0 W/m2
11:02 -9.7 °C -10.4 °C 34395 hPa SW 23.8 km/h 23.8 km/h 91 % 0 mm 355.0 W/m2
11:07 -9.6 °C -10.4 °C 34405.1 hPa SW 15.6 km/h 15.6 km/h 91 % 0 mm 438.0 W/m2
11:12 -9.6 °C -10.4 °C 34418.7 hPa SSW 7.7 km/h 18.2 km/h 91 % 0 mm 362 W/m2
11:17 -9.5 °C -10.3 °C 34405.1 hPa WSW 20.9 km/h 20.9 km/h 91 % 0 mm 350.0 W/m2
11:22 -9.5 °C -10.4 °C 34405.1 hPa WSW 17.9 km/h 17.9 km/h 90 % 0 mm 341.0 W/m2
11:27 -9.4 °C -10.3 °C 34405.1 hPa WSW 20.9 km/h 20.9 km/h 90 % 0 mm 408.0 W/m2
11:32 -9.3 °C -10.2 °C 34405.1 hPa West 12.9 km/h 12.9 km/h 90 % 0 mm 861.0 W/m2
11:37 -9.2 °C -10.2 °C 34405.1 hPa WSW 18.2 km/h 18.2 km/h 89 % 0 mm 738.0 W/m2
11:42 -9.1 °C -10.1 °C 34418.7 hPa West 7.7 km/h 10.3 km/h 89 % 0 mm 476 W/m2
11:47 -9 °C -10 °C 34428.8 hPa WSW 5.1 km/h 18.2 km/h 89 % 0 mm 272 W/m2
11:52 -9.2 °C -10.3 °C 34418.7 hPa SSW 20.9 km/h 20.9 km/h 88 % 0 mm 341.0 W/m2
11:57 -9.3 °C -10.4 °C 34418.7 hPa SW 20.9 km/h 20.9 km/h 88 % 0 mm 301.0 W/m2
12:02 -9.3 °C -10.4 °C 34428.8 hPa SW 10.3 km/h 18.2 km/h 88 % 0 mm 274 W/m2
12:48 -9.8 °C -10.6 °C 34418.7 hPa WSW 11.9 km/h 11.9 km/h 91 % 0 mm 218.0 W/m2
12:53 -9.8 °C -10.6 °C 34418.7 hPa SSW 23.8 km/h 23.8 km/h 91 % 0 mm 234.0 W/m2
12:58 -9.8 °C -10.6 °C 34418.7 hPa WSW 18.2 km/h 18.2 km/h 91 % 0 mm 230.0 W/m2
13:03 -9.8 °C -10.6 °C 34418.7 hPa NW 23.8 km/h 23.8 km/h 91 % 0 mm 229.0 W/m2
13:08 -9.8 °C -10.6 °C 34418.7 hPa WSW 20.9 km/h 20.9 km/h 91 % 0 mm 322.0 W/m2
13:13 -9.8 °C -10.6 °C 34418.7 hPa SW 17.9 km/h 17.9 km/h 91 % 0 mm 322.0 W/m2
13:18 -9.7 °C -10.5 °C 34418.7 hPa West 18.2 km/h 18.2 km/h 91 % 0 mm 431.0 W/m2
13:23 -9.7 °C -10.5 °C 34418.7 hPa SW 23.8 km/h 23.8 km/h 91 % 0 mm 362.0 W/m2
13:28 -9.7 °C -10.4 °C 34418.7 hPa West 15 km/h 15 km/h 91 % 0 mm 355.0 W/m2
13:33 -9.8 °C -10.6 °C 34418.7 hPa WSW 23.8 km/h 23.8 km/h 91 % 0 mm 311.0 W/m2
13:38 -9.8 °C -10.7 °C 34418.7 hPa WSW 26.9 km/h 26.9 km/h 91 % 0 mm 301.0 W/m2
13:43 -9.8 °C -10.6 °C 34418.7 hPa West 15 km/h 15 km/h 91 % 0 mm 302.0 W/m2
13:48 -9.8 °C -10.6 °C 34418.7 hPa WSW 20.9 km/h 20.9 km/h 91 % 0 mm 288.0 W/m2
13:55 -9.7 °C -10.5 °C 34418.7 hPa West 5.1 km/h 15.6 km/h 91 % 0 mm 107.0 W/m2
Meteocoruёa
Agradecimientos a Weather Underground - 2.5 mb